Time;durP1;ratioP1;P1;durP2;ratioP2;P2;SDS_P1;SDS_P2;PMS_P1;PMS_P2;Temp;Humidity;BMP_temperature;BMP_pressure;BME280_temperature;BME280_humidity;BME280_pressure;Samples;Min_cycle;Max_cycle;Signal;HPM_P1;HPM_P2
2023/09/07 00:01:36;;;;;;;;;;;;;;;;;;5111155;28;1274;-74
2023/09/07 00:04:03;;;;;;;;;;;;;;;;;;5109886;28;1973;-74
2023/09/07 00:06:28;;;;;;;;;;;;;;;;;;5112416;28;852;-74
2023/09/07 00:08:53;;;;;;;;;;;;;;;;;;5111543;28;1022;-74
2023/09/07 00:11:18;;;;;;;;;;;;;;;;;;5111581;28;829;-74
2023/09/07 00:13:44;;;;;;;;;;;;;;;;;;5111371;28;960;-74
2023/09/07 00:16:09;;;;;;;;;;;;;;;;;;5093329;28;1241;-74
2023/09/07 00:18:34;;;;;;;;;;;;;;;;;;5110157;28;1404;-75
2023/09/07 00:21:00;;;;;;;;;;;;;;;;;;5111416;28;848;-74
2023/09/07 00:23:25;;;;;;;;;;;;;;;;;;5110189;28;1890;-74
2023/09/07 00:25:51;;;;;;;;;;;;;;;;;;5111311;28;622;-74
2023/09/07 00:28:16;;;;;;;;;;;;;;;;;;5111839;28;856;-74
2023/09/07 00:30:41;;;;;;;;;;;;;;;;;;5111677;28;934;-75
2023/09/07 00:33:07;;;;;;;;;;;;;;;;;;5109823;28;1330;-74
2023/09/07 00:35:32;;;;;;;;;;;;;;;;;;5110151;28;876;-75
2023/09/07 00:37:58;;;;;;;;;;;;;;;;;;5113759;28;1245;-74
2023/09/07 00:40:23;;;;;;;;;;;;;;;;;;5093250;28;1217;-74
2023/09/07 00:42:48;;;;;;;;;;;;;;;;;;5106792;28;1917;-73
2023/09/07 00:45:14;;;;;;;;;;;;;;;;;;5102669;28;1123;-74
2023/09/07 00:47:39;;;;;;;;;;;;;;;;;;5114966;28;1238;-74
2023/09/07 00:50:05;;;;;;;;;;;;;;;;;;5114337;28;1197;-74
2023/09/07 00:52:31;;;;;;;;;;;;;;;;;;5115046;28;887;-73
2023/09/07 00:54:56;;;;;;;;;;;;;;;;;;5116009;28;825;-74
2023/09/07 00:57:22;;;;;;;;;;;;;;;;;;5114996;28;608;-73
2023/09/07 00:59:47;;;;;;;;;;;;;;;;;;5116033;28;832;-74
2023/09/07 01:02:12;;;;;;;;;;;;;;;;;;5116375;28;1061;-73
2023/09/07 01:04:37;;;;;;;;;;;;;;;;;;5114951;28;1907;-74
2023/09/07 01:07:07;;;;;;;;;;;;;;;;;;5099424;28;1324;-74
2023/09/07 01:09:34;;;;;;;;;;;;;;;;;;5117930;28;1061;-74
2023/09/07 01:12:00;;;;;;;;;;;;;;;;;;5115134;28;840;-75
2023/09/07 01:14:25;;;;;;;;;;;;;;;;;;5096992;28;1374;-74
2023/09/07 01:16:50;;;;;;;;;;;;;;;;;;5113705;28;1429;-74
2023/09/07 01:19:16;;;;;;;;;;;;;;;;;;5096965;28;1297;-74
2023/09/07 01:21:41;;;;;;;;;;;;;;;;;;5115252;28;836;-75
2023/09/07 01:24:08;;;;;;;;;;;;;;;;;;5114620;28;1898;-75
2023/09/07 01:26:34;;;;;;;;;;;;;;;;;;5113677;28;1183;-74
2023/09/07 01:29:00;;;;;;;;;;;;;;;;;;5114678;27;1085;-74
2023/09/07 01:31:25;;;;;;;;;;;;;;;;;;5114049;28;1006;-74
2023/09/07 01:33:51;;;;;;;;;;;;;;;;;;5113330;28;1423;-74
2023/09/07 01:36:16;;;;;;;;;;;;;;;;;;5115089;28;864;-74
2023/09/07 01:38:41;;;;;;;;;;;;;;;;;;5114883;28;911;-75
2023/09/07 01:41:07;;;;;;;;;;;;;;;;;;5113861;28;1220;-74
2023/09/07 01:43:33;;;;;;;;;;;;;;;;;;5113201;28;1893;-74
2023/09/07 01:45:58;;;;;;;;;;;;;;;;;;5113726;27;1150;-74
2023/09/07 01:48:23;;;;;;;;;;;;;;;;;;5095033;28;1302;-75
2023/09/07 01:50:53;;;;;;;;;;;;;;;;;;5113838;28;653;-74
2023/09/07 01:53:18;;;;;;;;;;;;;;;;;;5112357;28;1380;-74
2023/09/07 01:55:43;;;;;;;;;;;;;;;;;;5114084;28;836;-74
2023/09/07 01:58:09;;;;;;;;;;;;;;;;;;5113342;28;915;-74
2023/09/07 02:00:38;;;;;;;;;;;;;;;;;;5113065;28;1232;-74
2023/09/07 02:03:03;;;;;;;;;;;;;;;;;;5113253;28;1946;-74
2023/09/07 02:05:29;;;;;;;;;;;;;;;;;;5113994;28;1038;-74
2023/09/07 02:07:54;;;;;;;;;;;;;;;;;;5095251;28;1246;-74
2023/09/07 02:10:19;;;;;;;;;;;;;;;;;;5113906;28;863;-74
2023/09/07 02:12:45;;;;;;;;;;;;;;;;;;5113819;28;1081;-74
2023/09/07 02:15:10;;;;;;;;;;;;;;;;;;5112926;28;855;-74
2023/09/07 02:17:35;;;;;;;;;;;;;;;;;;5112419;28;804;-74
2023/09/07 02:20:01;;;;;;;;;;;;;;;;;;5111850;28;1528;-74
2023/09/07 02:22:26;;;;;;;;;;;;;;;;;;5113293;28;868;-74
2023/09/07 02:24:51;;;;;;;;;;;;;;;;;;5112634;28;1960;-74
2023/09/07 02:27:17;;;;;;;;;;;;;;;;;;5113176;28;962;-74
2023/09/07 02:29:42;;;;;;;;;;;;;;;;;;5112422;28;880;-74
2023/09/07 02:32:08;;;;;;;;;;;;;;;;;;5112625;28;911;-74
2023/09/07 02:34:36;;;;;;;;;;;;;;;;;;5112850;28;903;-74
2023/09/07 02:37:01;;;;;;;;;;;;;;;;;;5112612;28;844;-74
2023/09/07 02:39:27;;;;;;;;;;;;;;;;;;5112110;28;999;-74
2023/09/07 02:41:52;;;;;;;;;;;;;;;;;;5111221;28;1172;-74
2023/09/07 02:44:18;;;;;;;;;;;;;;;;;;5111723;28;1964;-74
2023/09/07 02:46:43;;;;;;;;;;;;;;;;;;5113678;28;1238;-74
2023/09/07 02:49:08;;;;;;;;;;;;;;;;;;5112275;28;1042;-74
2023/09/07 02:51:34;;;;;;;;;;;;;;;;;;5113850;28;994;-74
2023/09/07 02:54:01;;;;;;;;;;;;;;;;;;5112199;28;1155;-74
2023/09/07 02:56:26;;;;;;;;;;;;;;;;;;5112804;28;1222;-74
2023/09/07 02:58:51;;;;;;;;;;;;;;;;;;5112415;28;919;-74
2023/09/07 03:01:20;;;;;;;;;;;;;;;;;;5111291;28;1299;-75
2023/09/07 03:03:45;;;;;;;;;;;;;;;;;;5114153;28;1972;-73
2023/09/07 03:06:12;;;;;;;;;;;;;;;;;;5112576;28;845;-74
2023/09/07 03:08:37;;;;;;;;;;;;;;;;;;5111870;28;844;-74
2023/09/07 03:11:06;;;;;;;;;;;;;;;;;;5113433;28;868;-74
2023/09/07 03:13:32;;;;;;;;;;;;;;;;;;5111947;28;1127;-74
2023/09/07 03:15:58;;;;;;;;;;;;;;;;;;5113448;28;868;-74
2023/09/07 03:18:23;;;;;;;;;;;;;;;;;;5111725;28;1294;-74
2023/09/07 03:20:49;;;;;;;;;;;;;;;;;;5113311;28;840;-74
2023/09/07 03:23:15;;;;;;;;;;;;;;;;;;5112180;28;1898;-74
2023/09/07 03:25:40;;;;;;;;;;;;;;;;;;5110977;28;1149;-75
2023/09/07 03:28:06;;;;;;;;;;;;;;;;;;5112142;28;861;-74
2023/09/07 03:30:31;;;;;;;;;;;;;;;;;;5112451;28;884;-75
2023/09/07 03:32:56;;;;;;;;;;;;;;;;;;5112193;28;816;-73
2023/09/07 03:35:22;;;;;;;;;;;;;;;;;;5093552;28;1719;-74
2023/09/07 03:37:47;;;;;;;;;;;;;;;;;;5111551;28;841;-73
2023/09/07 03:40:12;;;;;;;;;;;;;;;;;;5110635;28;844;-73
2023/09/07 03:42:39;;;;;;;;;;;;;;;;;;5094228;28;1320;-75
2023/09/07 03:45:04;;;;;;;;;;;;;;;;;;5110299;28;1894;-74
2023/09/07 03:47:29;;;;;;;;;;;;;;;;;;5110973;28;1488;-74
2023/09/07 03:49:56;;;;;;;;;;;;;;;;;;5110617;28;1473;-73
2023/09/07 03:52:24;;;;;;;;;;;;;;;;;;5111063;28;1273;-74
2023/09/07 03:54:49;;;;;;;;;;;;;;;;;;5110839;28;1353;-74
2023/09/07 03:57:14;;;;;;;;;;;;;;;;;;5112782;28;876;-75
2023/09/07 03:59:40;;;;;;;;;;;;;;;;;;5113817;28;839;-74
2023/09/07 04:02:05;;;;;;;;;;;;;;;;;;5112083;28;958;-74
2023/09/07 04:04:30;;;;;;;;;;;;;;;;;;5095468;28;1910;-74
2023/09/07 04:06:55;;;;;;;;;;;;;;;;;;5113434;28;824;-73
2023/09/07 04:09:21;;;;;;;;;;;;;;;;;;5095445;28;1333;-74
2023/09/07 04:11:46;;;;;;;;;;;;;;;;;;5115170;28;872;-74
2023/09/07 04:14:11;;;;;;;;;;;;;;;;;;5116992;28;793;-75
2023/09/07 04:16:37;;;;;;;;;;;;;;;;;;5116761;28;1627;-74
2023/09/07 04:19:03;;;;;;;;;;;;;;;;;;5117225;28;938;-74
2023/09/07 04:21:28;;;;;;;;;;;;;;;;;;5117302;28;851;-74
2023/09/07 04:23:53;;;;;;;;;;;;;;;;;;5116098;28;1909;-74
2023/09/07 04:26:19;;;;;;;;;;;;;;;;;;5114742;28;947;-74
2023/09/07 04:28:44;;;;;;;;;;;;;;;;;;5116865;28;1191;-74
2023/09/07 04:31:09;;;;;;;;;;;;;;;;;;5117766;28;829;-74
2023/09/07 04:33:35;;;;;;;;;;;;;;;;;;5115890;28;895;-74
2023/09/07 04:36:10;;;;;;;;;;;;;;;;;;5116100;28;915;-74
2023/09/07 04:38:35;;;;;;;;;;;;;;;;;;5116775;28;860;-74
2023/09/07 04:41:07;;;;;;;;;;;;;;;;;;5116788;28;1022;-74
2023/09/07 04:43:32;;;;;;;;;;;;;;;;;;5103754;28;1902;-74
2023/09/07 04:45:58;;;;;;;;;;;;;;;;;;5093572;28;1290;-74
2023/09/07 04:48:23;;;;;;;;;;;;;;;;;;5093461;28;1343;-74
2023/09/07 04:50:48;;;;;;;;;;;;;;;;;;5093142;28;1176;-74
2023/09/07 04:53:14;;;;;;;;;;;;;;;;;;5101805;28;1191;-75
2023/09/07 04:55:39;;;;;;;;;;;;;;;;;;5112238;28;1179;-75
2023/09/07 04:58:04;;;;;;;;;;;;;;;;;;5098784;28;1178;-75
2023/09/07 05:00:30;;;;;;;;;;;;;;;;;;5093682;28;903;-74
2023/09/07 05:02:55;;;;;;;;;;;;;;;;;;5093330;28;1917;-74
2023/09/07 05:05:20;;;;;;;;;;;;;;;;;;5094666;28;983;-74
2023/09/07 05:07:46;;;;;;;;;;;;;;;;;;5094783;28;794;-75
2023/09/07 05:10:12;;;;;;;;;;;;;;;;;;5094674;28;747;-74
2023/09/07 05:12:37;;;;;;;;;;;;;;;;;;5093624;28;880;-75
2023/09/07 05:15:06;;;;;;;;;;;;;;;;;;5094193;28;852;-74
2023/09/07 05:17:31;;;;;;;;;;;;;;;;;;5093343;28;1308;-74
2023/09/07 05:19:56;;;;;;;;;;;;;;;;;;5092553;28;1423;-73
2023/09/07 05:22:22;;;;;;;;;;;;;;;;;;5093967;28;954;-74
2023/09/07 05:24:47;;;;;;;;;;;;;;;;;;5093547;28;1965;-74
2023/09/07 05:27:12;;;;;;;;;;;;;;;;;;5093696;28;849;-74
2023/09/07 05:29:38;;;;;;;;;;;;;;;;;;5076360;28;1296;-74
2023/09/07 05:32:03;;;;;;;;;;;;;;;;;;5093913;28;864;-74
2023/09/07 05:34:29;;;;;;;;;;;;;;;;;;5092998;28;813;-74
2023/09/07 05:36:55;;;;;;;;;;;;;;;;;;5092781;28;829;-73
2023/09/07 05:39:20;;;;;;;;;;;;;;;;;;5093965;28;1035;-73
2023/09/07 05:41:45;;;;;;;;;;;;;;;;;;5093929;28;909;-73
2023/09/07 05:44:10;;;;;;;;;;;;;;;;;;5074841;28;1965;-71
2023/09/07 05:46:36;;;;;;;;;;;;;;;;;;5093680;28;1042;-71
2023/09/07 05:49:01;;;;;;;;;;;;;;;;;;5092904;28;1196;-71
2023/09/07 05:51:26;;;;;;;;;;;;;;;;;;5092444;28;1007;-71
2023/09/07 05:53:51;;;;;;;;;;;;;;;;;;5091831;28;1456;-71
2023/09/07 05:56:17;;;;;;;;;;;;;;;;;;5091950;28;915;-71
2023/09/07 05:58:42;;;;;;;;;;;;;;;;;;5092337;28;848;-71
2023/09/07 06:01:07;;;;;;;;;;;;;;;;;;5093237;28;868;-71
2023/09/07 06:03:34;;;;;;;;;;;;;;;;;;5093373;28;1968;-71
2023/09/07 06:06:00;;;;;;;;;;;;;;;;;;5075145;28;1254;-71
2023/09/07 06:08:25;;;;;;;;;;;;;;;;;;5093649;28;907;-71
2023/09/07 06:10:50;;;;;;;;;;;;;;;;;;5091980;28;840;-71
2023/09/07 06:13:15;;;;;;;;;;;;;;;;;;5091631;28;895;-71
2023/09/07 06:15:41;;;;;;;;;;;;;;;;;;5093143;28;999;-71
2023/09/07 06:18:06;;;;;;;;;;;;;;;;;;5092950;28;853;-71
2023/09/07 06:20:31;;;;;;;;;;;;;;;;;;5094025;28;958;-71
2023/09/07 06:22:56;;;;;;;;;;;;;;;;;;5092115;28;1901;-71
2023/09/07 06:25:22;;;;;;;;;;;;;;;;;;5094131;28;820;-71
2023/09/07 06:27:47;;;;;;;;;;;;;;;;;;5092624;28;1416;-71
2023/09/07 06:30:13;;;;;;;;;;;;;;;;;;5075613;28;1306;-71
2023/09/07 06:32:38;;;;;;;;;;;;;;;;;;5093398;28;789;-71
2023/09/07 06:35:04;;;;;;;;;;;;;;;;;;5092983;28;891;-71
2023/09/07 06:37:29;;;;;;;;;;;;;;;;;;5093940;28;781;-71
2023/09/07 06:39:55;;;;;;;;;;;;;;;;;;5092889;28;848;-71
2023/09/07 06:42:20;;;;;;;;;;;;;;;;;;5075596;28;1417;-71
2023/09/07 06:44:45;;;;;;;;;;;;;;;;;;5093399;28;1894;-71
2023/09/07 06:47:10;;;;;;;;;;;;;;;;;;5091826;28;1074;-72
2023/09/07 06:49:37;;;;;;;;;;;;;;;;;;5091053;28;927;-72
2023/09/07 06:52:03;;;;;;;;;;;;;;;;;;5092427;28;903;-72
2023/09/07 06:54:28;;;;;;;;;;;;;;;;;;5091453;28;1758;-71
2023/09/07 06:56:54;;;;;;;;;;;;;;;;;;5091103;28;1230;-71
2023/09/07 06:59:19;;;;;;;;;;;;;;;;;;5092157;28;761;-71
2023/09/07 07:01:44;;;;;;;;;;;;;;;;;;5074106;28;1280;-72
2023/09/07 07:04:09;;;;;;;;;;;;;;;;;;5090505;28;1957;-72
2023/09/07 07:06:35;;;;;;;;;;;;;;;;;;5089675;28;1226;-72
2023/09/07 07:09:00;;;;;;;;;;;;;;;;;;5091855;28;955;-71
2023/09/07 07:11:25;;;;;;;;;;;;;;;;;;5092871;28;809;-72
2023/09/07 07:13:50;;;;;;;;;;;;;;;;;;5090870;28;1198;-72
2023/09/07 07:16:16;;;;;;;;;;;;;;;;;;5090358;28;979;-71
2023/09/07 07:18:42;;;;;;;;;;;;;;;;;;5092347;28;836;-70
2023/09/07 07:21:08;;;;;;;;;;;;;;;;;;5091430;28;848;-71
2023/09/07 07:23:34;;;;;;;;;;;;;;;;;;5090768;28;1893;-71
2023/09/07 07:25:59;;;;;;;;;;;;;;;;;;5091530;28;852;-71
2023/09/07 07:28:24;;;;;;;;;;;;;;;;;;5090977;28;1019;-71
2023/09/07 07:30:52;;;;;;;;;;;;;;;;;;5091583;28;927;-71
2023/09/07 07:33:17;;;;;;;;;;;;;;;;;;5091325;28;841;-71
2023/09/07 07:35:42;;;;;;;;;;;;;;;;;;5091673;28;844;-71
2023/09/07 07:38:08;;;;;;;;;;;;;;;;;;5091665;28;931;-72
2023/09/07 07:40:33;;;;;;;;;;;;;;;;;;5092097;28;1019;-72
2023/09/07 07:42:58;;;;;;;;;;;;;;;;;;5091595;28;1866;-71
2023/09/07 07:45:24;;;;;;;;;;;;;;;;;;5092091;28;898;-71
2023/09/07 07:47:49;;;;;;;;;;;;;;;;;;5091539;28;1037;-71
2023/09/07 07:50:15;;;;;;;;;;;;;;;;;;5091630;28;911;-71
2023/09/07 07:52:40;;;;;;;;;;;;;;;;;;5092134;28;831;-72
2023/09/07 07:55:06;;;;;;;;;;;;;;;;;;5091184;28;950;-72
2023/09/07 07:57:32;;;;;;;;;;;;;;;;;;5091506;28;963;-72
2023/09/07 07:59:57;;;;;;;;;;;;;;;;;;5091801;28;848;-71
2023/09/07 08:02:23;;;;;;;;;;;;;;;;;;5091638;28;631;-71
2023/09/07 08:04:48;;;;;;;;;;;;;;;;;;5073134;28;1906;-71
2023/09/07 08:07:13;;;;;;;;;;;;;;;;;;5091209;28;824;-71
2023/09/07 08:09:38;;;;;;;;;;;;;;;;;;5091036;28;1042;-71
2023/09/07 08:12:05;;;;;;;;;;;;;;;;;;5091455;28;821;-71
2023/09/07 08:14:30;;;;;;;;;;;;;;;;;;5092085;28;908;-71
2023/09/07 08:16:56;;;;;;;;;;;;;;;;;;5090837;28;1220;-71
2023/09/07 08:19:21;;;;;;;;;;;;;;;;;;5090522;28;998;-71
2023/09/07 08:21:47;;;;;;;;;;;;;;;;;;5092025;28;919;-71
2023/09/07 08:24:12;;;;;;;;;;;;;;;;;;5073463;28;1926;-71
2023/09/07 08:26:38;;;;;;;;;;;;;;;;;;5092530;28;899;-71
2023/09/07 08:29:08;;;;;;;;;;;;;;;;;;5089547;28;1362;-71
2023/09/07 08:31:33;;;;;;;;;;;;;;;;;;5090341;28;907;-71
2023/09/07 08:34:03;;;;;;;;;;;;;;;;;;5090648;28;908;-71
2023/09/07 08:36:32;;;;;;;;;;;;;;;;;;5091883;28;848;-71
2023/09/07 08:39:00;;;;;;;;;;;;;;;;;;5092082;28;825;-71
2023/09/07 08:41:26;;;;;;;;;;;;;;;;;;5091262;28;1298;-71
2023/09/07 08:43:52;;;;;;;;;;;;;;;;;;5091794;28;1894;-71
2023/09/07 08:46:20;;;;;;;;;;;;;;;;;;5091638;28;852;-69
2023/09/07 08:48:46;;;;;;;;;;;;;;;;;;5091583;28;1319;-71
2023/09/07 08:51:12;;;;;;;;;;;;;;;;;;5090473;28;1189;-71
2023/09/07 08:53:38;;;;;;;;;;;;;;;;;;5091787;28;1183;-71
2023/09/07 08:56:04;;;;;;;;;;;;;;;;;;5071222;28;1443;-71
2023/09/07 08:58:31;;;;;;;;;;;;;;;;;;5092395;28;1464;-71
2023/09/07 09:00:57;;;;;;;;;;;;;;;;;;5095010;28;1015;-71
2023/09/07 09:03:23;;;;;;;;;;;;;;;;;;5076266;28;1963;-71
2023/09/07 09:05:50;;;;;;;;;;;;;;;;;;5094663;28;923;-71
2023/09/07 09:08:20;;;;;;;;;;;;;;;;;;5094378;28;1007;-70
2023/09/07 09:10:45;;;;;;;;;;;;;;;;;;5094931;28;821;-71
2023/09/07 09:13:11;;;;;;;;;;;;;;;;;;5093041;28;857;-71
2023/09/07 09:15:36;;;;;;;;;;;;;;;;;;5093128;28;1295;-71
2023/09/07 09:18:12;;;;;;;;;;;;;;;;;;5092110;28;816;-71
2023/09/07 09:20:37;;;;;;;;;;;;;;;;;;5092818;28;1203;-71
2023/09/07 09:23:04;;;;;;;;;;;;;;;;;;5093715;28;1938;-71
2023/09/07 09:25:31;;;;;;;;;;;;;;;;;;5094601;28;852;-71
2023/09/07 09:27:56;;;;;;;;;;;;;;;;;;5094120;28;801;-70
2023/09/07 09:30:21;;;;;;;;;;;;;;;;;;5092268;28;1038;-71
2023/09/07 09:32:47;;;;;;;;;;;;;;;;;;5094512;28;999;-71
2023/09/07 09:35:16;;;;;;;;;;;;;;;;;;5092078;28;1276;-71
2023/09/07 09:37:45;;;;;;;;;;;;;;;;;;5092621;28;1389;-71
2023/09/07 09:40:12;;;;;;;;;;;;;;;;;;5093409;28;927;-71
2023/09/07 09:42:38;;;;;;;;;;;;;;;;;;5094087;28;1085;-71
2023/09/07 09:45:05;;;;;;;;;;;;;;;;;;5092199;28;1913;-71
2023/09/07 09:47:31;;;;;;;;;;;;;;;;;;5092687;28;1499;-71
2023/09/07 09:49:57;;;;;;;;;;;;;;;;;;5092098;28;1280;-71
2023/09/07 09:52:24;;;;;;;;;;;;;;;;;;5092651;28;1357;-71
2023/09/07 09:54:50;;;;;;;;;;;;;;;;;;5093480;28;888;-71
2023/09/07 09:57:15;;;;;;;;;;;;;;;;;;5093694;28;860;-71
2023/09/07 09:59:41;;;;;;;;;;;;;;;;;;5092880;28;1319;-71
2023/09/07 10:02:06;;;;;;;;;;;;;;;;;;5092051;28;950;-71
2023/09/07 10:04:31;;;;;;;;;;;;;;;;;;5092562;28;1913;-71
2023/09/07 10:07:05;;;;;;;;;;;;;;;;;;5094052;28;962;-70
2023/09/07 10:09:33;;;;;;;;;;;;;;;;;;5093480;28;863;-71
2023/09/07 10:12:04;;;;;;;;;;;;;;;;;;5093471;28;924;-71
2023/09/07 10:14:39;;;;;;;;;;;;;;;;;;5094083;28;951;-67
2023/09/07 10:17:04;;;;;;;;;;;;;;;;;;5093723;28;773;-68
2023/09/07 10:19:30;;;;;;;;;;;;;;;;;;5093340;28;1376;-71
2023/09/07 10:21:56;;;;;;;;;;;;;;;;;;5094480;28;952;-72
2023/09/07 10:24:25;;;;;;;;;;;;;;;;;;5093243;28;1910;-69
2023/09/07 10:27:00;;;;;;;;;;;;;;;;;;5092322;28;931;-70
2023/09/07 10:29:26;;;;;;;;;;;;;;;;;;5092263;28;816;-71
2023/09/07 10:31:51;;;;;;;;;;;;;;;;;;5093035;28;947;-71
2023/09/07 10:34:17;;;;;;;;;;;;;;;;;;5074993;28;1318;-71
2023/09/07 10:36:42;;;;;;;;;;;;;;;;;;5093872;28;832;-71
2023/09/07 10:39:08;;;;;;;;;;;;;;;;;;5093035;28;1033;-70
2023/09/07 10:41:43;;;;;;;;;;;;;;;;;;5093874;28;858;-70
2023/09/07 10:44:10;;;;;;;;;;;;;;;;;;5092768;28;1897;-70
2023/09/07 10:46:36;;;;;;;;;;;;;;;;;;5093768;28;872;-70
2023/09/07 10:49:02;;;;;;;;;;;;;;;;;;5091529;28;1457;-71
2023/09/07 10:51:29;;;;;;;;;;;;;;;;;;5092100;28;868;-70
2023/09/07 10:53:55;;;;;;;;;;;;;;;;;;5093817;28;872;-70
2023/09/07 10:56:23;;;;;;;;;;;;;;;;;;5092886;28;938;-70
2023/09/07 10:58:51;;;;;;;;;;;;;;;;;;5092668;28;1151;-70
2023/09/07 11:01:16;;;;;;;;;;;;;;;;;;5090343;28;1296;-70
2023/09/07 11:03:41;;;;;;;;;;;;;;;;;;5093074;28;1959;-70
2023/09/07 11:06:09;;;;;;;;;;;;;;;;;;5090428;28;1146;-70
2023/09/07 11:08:34;;;;;;;;;;;;;;;;;;5092253;28;797;-70
2023/09/07 11:11:00;;;;;;;;;;;;;;;;;;5092041;28;837;-70
2023/09/07 11:13:26;;;;;;;;;;;;;;;;;;5092332;28;1066;-70
2023/09/07 11:15:56;;;;;;;;;;;;;;;;;;5091314;28;1388;-70
2023/09/07 11:18:21;;;;;;;;;;;;;;;;;;5091926;28;926;-71
2023/09/07 11:20:48;;;;;;;;;;;;;;;;;;5089996;28;797;-70
2023/09/07 11:23:13;;;;;;;;;;;;;;;;;;5091201;28;1947;-71
2023/09/07 11:25:39;;;;;;;;;;;;;;;;;;5090970;28;1364;-71
2023/09/07 11:28:08;;;;;;;;;;;;;;;;;;5092008;28;989;-71
2023/09/07 11:30:34;;;;;;;;;;;;;;;;;;5091841;28;843;-71
2023/09/07 11:33:04;;;;;;;;;;;;;;;;;;5092162;28;839;-71
2023/09/07 11:35:29;;;;;;;;;;;;;;;;;;5091636;28;998;-71
2023/09/07 11:37:55;;;;;;;;;;;;;;;;;;5092308;28;820;-71
2023/09/07 11:40:20;;;;;;;;;;;;;;;;;;5090004;28;1489;-70
2023/09/07 11:42:45;;;;;;;;;;;;;;;;;;5092156;28;975;-70
2023/09/07 11:45:13;;;;;;;;;;;;;;;;;;5089902;28;1902;-72
2023/09/07 11:47:38;;;;;;;;;;;;;;;;;;5090258;28;1203;-71
2023/09/07 11:50:04;;;;;;;;;;;;;;;;;;5091523;28;927;-71
2023/09/07 11:52:29;;;;;;;;;;;;;;;;;;5090022;28;860;-71
2023/09/07 11:54:54;;;;;;;;;;;;;;;;;;5091799;28;915;-71
2023/09/07 11:57:19;;;;;;;;;;;;;;;;;;5089381;28;1261;-71
2023/09/07 11:59:45;;;;;;;;;;;;;;;;;;5089835;28;975;-71
2023/09/07 12:02:14;;;;;;;;;;;;;;;;;;5091033;28;1378;-71
2023/09/07 12:04:40;;;;;;;;;;;;;;;;;;5090541;28;1914;-71
2023/09/07 12:07:05;;;;;;;;;;;;;;;;;;5090896;28;880;-70
2023/09/07 12:09:30;;;;;;;;;;;;;;;;;;5072493;28;1382;-71
2023/09/07 12:11:55;;;;;;;;;;;;;;;;;;5091475;28;828;-70
2023/09/07 12:14:21;;;;;;;;;;;;;;;;;;5090547;28;903;-70
2023/09/07 12:16:47;;;;;;;;;;;;;;;;;;5090319;28;1025;-71
2023/09/07 12:19:12;;;;;;;;;;;;;;;;;;5089072;28;975;-71
2023/09/07 12:21:38;;;;;;;;;;;;;;;;;;5073514;28;1441;-70
2023/09/07 12:24:03;;;;;;;;;;;;;;;;;;5091302;28;1976;-70
2023/09/07 12:26:28;;;;;;;;;;;;;;;;;;5090797;28;943;-70
2023/09/07 12:28:54;;;;;;;;;;;;;;;;;;5089888;28;868;-71
2023/09/07 12:31:19;;;;;;;;;;;;;;;;;;5090506;28;940;-70
2023/09/07 12:33:44;;;;;;;;;;;;;;;;;;5075980;28;1286;-71
2023/09/07 12:36:11;;;;;;;;;;;;;;;;;;5095018;28;864;-71
2023/09/07 12:38:36;;;;;;;;;;;;;;;;;;5077500;28;1215;-71
2023/09/07 12:41:02;;;;;;;;;;;;;;;;;;5093497;28;1296;-71
2023/09/07 12:43:27;;;;;;;;;;;;;;;;;;5092862;28;1914;-71
2023/09/07 12:45:53;;;;;;;;;;;;;;;;;;5095311;28;955;-71
2023/09/07 12:48:19;;;;;;;;;;;;;;;;;;5094769;28;1411;-71
2023/09/07 12:50:44;;;;;;;;;;;;;;;;;;5096164;28;789;-71
2023/09/07 12:53:09;;;;;;;;;;;;;;;;;;5094788;28;959;-71
2023/09/07 12:55:34;;;;;;;;;;;;;;;;;;5104503;28;1238;-71
2023/09/07 12:58:00;;;;;;;;;;;;;;;;;;5110557;28;1163;-71
2023/09/07 13:00:26;;;;;;;;;;;;;;;;;;5084163;28;1333;-71
2023/09/07 13:02:51;;;;;;;;;;;;;;;;;;5114100;28;856;-71
2023/09/07 13:05:16;;;;;;;;;;;;;;;;;;5116083;28;1965;-70
2023/09/07 13:07:43;;;;;;;;;;;;;;;;;;5114689;28;895;-71
2023/09/07 13:10:09;;;;;;;;;;;;;;;;;;5115347;27;872;-71
2023/09/07 13:12:34;;;;;;;;;;;;;;;;;;5115545;28;887;-71
2023/09/07 13:14:59;;;;;;;;;;;;;;;;;;5115990;28;821;-71
2023/09/07 13:17:25;;;;;;;;;;;;;;;;;;5116007;28;676;-71
2023/09/07 13:19:50;;;;;;;;;;;;;;;;;;5114440;28;1458;-72
2023/09/07 13:22:16;;;;;;;;;;;;;;;;;;5113649;28;1172;-72
2023/09/07 13:24:41;;;;;;;;;;;;;;;;;;5114868;28;1902;-72
2023/09/07 13:27:08;;;;;;;;;;;;;;;;;;5115445;28;824;-71
2023/09/07 13:29:33;;;;;;;;;;;;;;;;;;5114763;28;879;-71
2023/09/07 13:31:59;;;;;;;;;;;;;;;;;;5113901;28;1571;-71
2023/09/07 13:34:24;;;;;;;;;;;;;;;;;;5114932;28;986;-71
2023/09/07 13:36:49;;;;;;;;;;;;;;;;;;5113826;28;701;-71
2023/09/07 13:39:14;;;;;;;;;;;;;;;;;;5113071;27;891;-71
2023/09/07 13:41:40;;;;;;;;;;;;;;;;;;5114805;28;921;-71
2023/09/07 13:44:05;;;;;;;;;;;;;;;;;;5111891;28;1945;-71
2023/09/07 13:46:31;;;;;;;;;;;;;;;;;;5096098;28;1250;-72
2023/09/07 13:48:56;;;;;;;;;;;;;;;;;;5114917;28;1241;-71
2023/09/07 13:51:21;;;;;;;;;;;;;;;;;;5112820;28;1297;-72
2023/09/07 13:53:46;;;;;;;;;;;;;;;;;;5113747;28;891;-71
2023/09/07 13:56:12;;;;;;;;;;;;;;;;;;5113984;28;816;-71
2023/09/07 13:58:37;;;;;;;;;;;;;;;;;;5095931;28;1444;-71
2023/09/07 14:01:02;;;;;;;;;;;;;;;;;;5112778;28;1022;-71
2023/09/07 14:03:27;;;;;;;;;;;;;;;;;;5113244;28;1976;-71
2023/09/07 14:05:53;;;;;;;;;;;;;;;;;;5113734;28;895;-71
2023/09/07 14:08:23;;;;;;;;;;;;;;;;;;5113293;28;880;-71
2023/09/07 14:10:48;;;;;;;;;;;;;;;;;;5113539;28;877;-71
2023/09/07 14:13:13;;;;;;;;;;;;;;;;;;5113312;28;833;-71
2023/09/07 14:15:39;;;;;;;;;;;;;;;;;;5112824;28;1130;-71
2023/09/07 14:18:04;;;;;;;;;;;;;;;;;;5113917;28;915;-71
2023/09/07 14:20:29;;;;;;;;;;;;;;;;;;5113277;28;922;-71
2023/09/07 14:22:57;;;;;;;;;;;;;;;;;;5112761;28;896;-72
2023/09/07 14:25:22;;;;;;;;;;;;;;;;;;5094603;28;2000;-71
2023/09/07 14:27:47;;;;;;;;;;;;;;;;;;5113715;28;1050;-72
2023/09/07 14:30:13;;;;;;;;;;;;;;;;;;5114034;28;847;-71
2023/09/07 14:32:38;;;;;;;;;;;;;;;;;;5114368;28;895;-71
2023/09/07 14:35:03;;;;;;;;;;;;;;;;;;5098463;28;1178;-71
2023/09/07 14:37:29;;;;;;;;;;;;;;;;;;5112996;28;1210;-72
2023/09/07 14:39:57;;;;;;;;;;;;;;;;;;5114353;28;880;-71
2023/09/07 14:42:23;;;;;;;;;;;;;;;;;;5096562;28;1361;-71
2023/09/07 14:44:48;;;;;;;;;;;;;;;;;;5114715;28;1905;-71
2023/09/07 14:47:14;;;;;;;;;;;;;;;;;;5113445;28;844;-71
2023/09/07 14:49:39;;;;;;;;;;;;;;;;;;5095808;28;1192;-71
2023/09/07 14:52:04;;;;;;;;;;;;;;;;;;5113123;28;935;-72
2023/09/07 14:54:29;;;;;;;;;;;;;;;;;;5113683;28;907;-72
2023/09/07 14:56:55;;;;;;;;;;;;;;;;;;5114785;28;856;-72
2023/09/07 14:59:21;;;;;;;;;;;;;;;;;;5111914;28;1344;-72
2023/09/07 15:01:46;;;;;;;;;;;;;;;;;;5112654;28;1314;-72
2023/09/07 15:04:11;;;;;;;;;;;;;;;;;;5112422;28;1973;-72
2023/09/07 15:06:37;;;;;;;;;;;;;;;;;;5113321;28;912;-71
2023/09/07 15:09:03;;;;;;;;;;;;;;;;;;5113149;27;820;-71
2023/09/07 15:11:29;;;;;;;;;;;;;;;;;;5111306;28;843;-71
2023/09/07 15:13:55;;;;;;;;;;;;;;;;;;5112677;28;914;-71
2023/09/07 15:16:21;;;;;;;;;;;;;;;;;;5110826;28;867;-71
2023/09/07 15:18:46;;;;;;;;;;;;;;;;;;5113248;28;911;-71
2023/09/07 15:21:11;;;;;;;;;;;;;;;;;;5113652;28;902;-71
2023/09/07 15:23:36;;;;;;;;;;;;;;;;;;5095058;28;1918;-72
2023/09/07 15:26:02;;;;;;;;;;;;;;;;;;5098478;28;1169;-74
2023/09/07 15:28:27;;;;;;;;;;;;;;;;;;5091592;28;1659;-74
2023/09/07 15:30:53;;;;;;;;;;;;;;;;;;5092637;28;923;-71
2023/09/07 15:33:19;;;;;;;;;;;;;;;;;;5091284;28;911;-74
2023/09/07 15:35:44;;;;;;;;;;;;;;;;;;5092968;28;1007;-71
2023/09/07 15:38:10;;;;;;;;;;;;;;;;;;5093213;28;869;-74
2023/09/07 15:40:36;;;;;;;;;;;;;;;;;;5092582;28;805;-73
2023/09/07 15:43:01;;;;;;;;;;;;;;;;;;5075050;28;1545;-70
2023/09/07 15:45:26;;;;;;;;;;;;;;;;;;5074873;28;1910;-74
2023/09/07 15:47:54;;;;;;;;;;;;;;;;;;5091730;28;856;-74
2023/09/07 15:50:19;;;;;;;;;;;;;;;;;;5092212;28;1294;-72
2023/09/07 15:52:48;;;;;;;;;;;;;;;;;;5074393;28;1452;-71
2023/09/07 15:55:15;;;;;;;;;;;;;;;;;;5091876;28;832;-69
2023/09/07 15:57:42;;;;;;;;;;;;;;;;;;5092842;28;828;-69
2023/09/07 16:00:07;;;;;;;;;;;;;;;;;;5092881;28;865;-69
2023/09/07 16:02:33;;;;;;;;;;;;;;;;;;5092373;28;992;-68
2023/09/07 16:04:58;;;;;;;;;;;;;;;;;;5074248;28;1977;-69
2023/09/07 16:07:23;;;;;;;;;;;;;;;;;;5090358;28;864;-74
2023/09/07 16:09:49;;;;;;;;;;;;;;;;;;5092998;28;963;-74
2023/09/07 16:12:14;;;;;;;;;;;;;;;;;;5092940;28;844;-70
2023/09/07 16:14:39;;;;;;;;;;;;;;;;;;5090510;28;1215;-69
2023/09/07 16:17:05;;;;;;;;;;;;;;;;;;5091133;28;1199;-69
2023/09/07 16:19:30;;;;;;;;;;;;;;;;;;5091653;28;907;-69
2023/09/07 16:21:55;;;;;;;;;;;;;;;;;;5092083;28;947;-69
2023/09/07 16:24:20;;;;;;;;;;;;;;;;;;5091743;28;1909;-68
2023/09/07 16:26:46;;;;;;;;;;;;;;;;;;5092874;28;833;-68
2023/09/07 16:29:11;;;;;;;;;;;;;;;;;;5093601;28;875;-69
2023/09/07 16:31:37;;;;;;;;;;;;;;;;;;5092056;28;912;-69
2023/09/07 16:34:03;;;;;;;;;;;;;;;;;;5093497;28;837;-68
2023/09/07 16:36:28;;;;;;;;;;;;;;;;;;5091351;28;911;-66
2023/09/07 16:38:53;;;;;;;;;;;;;;;;;;5075351;28;1434;-69
2023/09/07 16:41:19;;;;;;;;;;;;;;;;;;5093284;28;883;-69
2023/09/07 16:43:44;;;;;;;;;;;;;;;;;;5093075;28;1889;-72
2023/09/07 16:46:09;;;;;;;;;;;;;;;;;;5093852;28;1018;-71
2023/09/07 16:48:34;;;;;;;;;;;;;;;;;;5092662;28;1022;-73
2023/09/07 16:50:59;;;;;;;;;;;;;;;;;;5092246;28;872;-73
2023/09/07 16:53:25;;;;;;;;;;;;;;;;;;5091987;28;900;-73
2023/09/07 16:55:50;;;;;;;;;;;;;;;;;;5092054;28;900;-73
2023/09/07 16:58:16;;;;;;;;;;;;;;;;;;5092013;28;911;-72
2023/09/07 17:00:41;;;;;;;;;;;;;;;;;;5092828;28;1053;-72
2023/09/07 17:03:06;;;;;;;;;;;;;;;;;;5089765;28;1236;-69